• Join FlightAware (Why Join?)
  • Login
  • US Flag 
06:34AM EDT


 

Airport Tracker/Info


-or-


 

Live Flight TrackerFlight Track Log ✈ SWA2339 ✈ 14-Apr-2013 ✈ KSDF - KMDW

Flight Track Log - Related Links

Times and Time Zones

All times are in EDT time to prevent confusion due to time zone crossing. See the SWA2339 flight status page for this flight to view local times or setup timezone preferences in your user account.

Time Position Orientation Groundspeed Altitude Reporting Facility
EDT Latitude Longitude Course Direction KTS MPH feet Rate Location/Type
10:34AM 38.1239 -85.7331 174° South 173 199 2,700  Level FAA TRACON SMA TRACON (SMA)
10:34AM 38.1114 -85.7342 184° South 189 217 3,200 2,280 Climbing FAA TRACON SMA TRACON (SMA)
10:35AM 38.0950 -85.7417 200° South 208 239 4,100 3,000 Climbing FAA TRACON SMA TRACON (SMA)
10:35AM 38.0800 -85.7633 229° Southwest 217 250 5,200 2,520 Climbing FAA TRACON SMA TRACON (SMA)
10:35AM 38.0761 -85.7875 258° West 226 260 5,800 2,580 Climbing FAA TRACON SMA TRACON (SMA)
10:36AM 38.0756 -85.8153 269° West 247 284 6,900 3,480 Climbing FAA TRACON SMA TRACON (SMA)
10:36AM 38.0750 -85.8514 269° West 265 305 8,200 3,600 Climbing FAA TRACON SMA TRACON (SMA)
10:36AM 38.0792 -85.8811 280° West 280 322 9,300 3,420 Climbing FAA TRACON SMA TRACON (SMA)
10:37AM 38.0947 -85.9069 307° West 297 342 10,500 2,820 Climbing FAA TRACON SMA TRACON (SMA)
10:37AM 38.1256 -85.9256 335° Northwest 323 372 11,200 2,580 Climbing FAA TRACON SMA TRACON (SMA)
10:37AM 38.1544 -85.9358 344° North 346 398 12,200 3,120 Climbing FAA TRACON SMA TRACON (SMA)
10:38AM 38.1844 -85.9467 344° North 360 414 13,300 3,300 Climbing FAA TRACON SMA TRACON (SMA)
10:38AM 38.2144 -85.9575 344° North 365 420 14,400 3,480 Climbing FAA TRACON SMA TRACON (SMA)
10:38AM 38.2522 -85.9706 345° North 367 422 15,700 3,600 Climbing FAA TRACON SMA TRACON (SMA)
10:39AM 38.2833 -85.9814 345° North 372 428 16,800 3,600 Climbing FAA TRACON SMA TRACON (SMA)
10:39AM 38.3222 -85.9931 347° North 374 430 18,100 3,480 Climbing FAA TRACON SMA TRACON (SMA)
10:39AM 38.3547 -85.9967 355° North 379 436 19,200 3,000 Climbing FAA TRACON SMA TRACON (SMA)
10:40AM 38.3881 -85.9978 359° North 386 444 20,100 2,580 Climbing FAA TRACON SMA TRACON (SMA)
10:40AM 38.4211 -85.9997 357° North 388 447 20,900 2,700 Climbing FAA TRACON SMA TRACON (SMA)
10:40AM 38.4639 -86.0011 359° North 395 455 21,900 2,400 Climbing FAA TRACON SMA TRACON (SMA)
10:41AM 38.4981 -86.0031 357° North 399 459 22,500 1,680 Climbing FAA TRACON SMA TRACON (SMA)
10:41AM 38.5333 -86.0044 358° North 408 470 23,000 720 Climbing FAA TRACON SMA TRACON (SMA)
10:41AM 38.5772 -86.0056 359° North 411 473 23,000  Level FAA TRACON SMA TRACON (SMA)
10:42AM 38.6122 -86.0081 357° North 411 473 23,000  Level FAA TRACON SMA TRACON (SMA)
10:42AM 38.6475 -86.0089 359° North 410 472 23,000  Level FAA TRACON SMA TRACON (SMA)
10:42AM 38.6914 -86.0106 358° North 409 471 23,000 120 Level FAA TRACON SMA TRACON (SMA)
10:43AM 38.7264 -86.0128 357° North 408 470 23,100 600 Climbing FAA TRACON SMA TRACON (SMA)
10:43AM 38.7617 -86.0131 360° North 410 472 23,400 1,020 Climbing FAA TRACON SMA TRACON (SMA)
10:43AM 38.8056 -86.0158 357° North 411 473 23,800 1,020 Climbing FAA TRACON SMA TRACON (SMA)
10:44AM 38.8414 -86.0167 359° North 416 479 24,100 1,620 Climbing FAA TRACON SMA TRACON (SMA)
10:44AM 38.8769 -86.0161 North 416 479 24,900 2,700 Climbing FAA TRACON SMA TRACON (SMA)
10:44AM 38.9206 -86.0169 359° North 410 472 25,900 1,620 Climbing FAA TRACON SMA TRACON (SMA)
10:45AM 38.9544 -86.0172 360° North 402 463 26,000 120 Climbing FAA TRACON SMA TRACON (SMA)
10:45AM 38.9881 -86.0200 356° North 396 456 26,000  Level FAA TRACON SMA TRACON (SMA)
10:45AM 39.0308 -86.0194 North 395 455 26,000  Level FAA TRACON SMA TRACON (SMA)
10:46AM 39.0647 -86.0203 359° North 397 457 26,000  Level FAA TRACON SMA TRACON (SMA)
10:46AM 39.0978 -86.0219 358° North 392 451 26,000  Level FAA TRACON SMA TRACON (SMA)
10:46AM 39.1406 -86.0222 360° North 395 455 26,000  Level FAA TRACON SMA TRACON (SMA)
10:47AM 39.1575 -86.0214 North 395 455 26,000 -120 Level FAA TRACON SMA TRACON (SMA)
10:48AM 39.3114 -86.0269 358° North 410 472 25,900 -540 Descending Indianapolis Center
10:49AM 39.4267 -86.0294 359° North 413 475 24,800 -960 Descending Indianapolis Center
10:50AM 39.5394 -86.0322 359° North 404 465 24,000 -420 Descending Indianapolis Center
10:51AM 39.6497 -86.0353 359° North 397 457 24,000  Level Indianapolis Center
10:52AM 39.7581 -86.0381 359° North 392 451 24,000  Level Indianapolis Center
10:53AM 39.8692 -86.0411 359° North 395 455 24,000  Level Indianapolis Center
10:54AM 39.9789 -86.0436 359° North 393 452 24,000  Level Indianapolis Center
10:55AM 40.1044 -86.0861 345° North 389 448 24,000 -300 Level Indianapolis Center
10:56AM 40.2100 -86.1253 344° North 390 449 23,400 -600 Descending Indianapolis Center
10:57AM 40.2283 -86.1317 345° North 386 444 23,200 -960 Descending Chicago Center
10:58AM 40.3300 -86.1683 345° North 380 437 22,200 -1,020 Descending Chicago Center
10:59AM 40.4308 -86.2053 344° North 377 434 21,200 -1,080 Descending Chicago Center
11:00AM 40.5494 -86.2486 344° North 369 425 20,000 -900 Descending Chicago Center
11:01AM 40.6467 -86.2850 344° North 363 418 19,400 -1,260 Descending Chicago Center
11:02AM 40.7397 -86.3178 345° North 349 402 17,500 -1,920 Descending Chicago Center
11:03AM 40.8322 -86.3531 344° North 346 398 15,500 -2,040 Descending Chicago Center
11:04AM 40.9239 -86.3864 345° North 342 394 13,400 -1,920 Descending Chicago Center
11:05AM 41.0153 -86.4203 344° North 339 390 11,600 -1,200 Descending Chicago Center
11:06AM 41.0833 -86.4883 323° Northwest 312 359 11,000 -780 Descending Chicago Center
11:07AM 41.1381 -86.5694 312° West 298 343 10,100 -480 Descending Chicago Center
11:08AM 41.1908 -86.6525 310° West 293 337 10,100  Level Chicago Center
11:09AM 41.2517 -86.7464 311° West 275 316 10,100 -300 Level Chicago Center
11:10AM 41.2986 -86.8203 310° West 265 305 9,600 -780 Descending Chicago Center
11:11AM 41.3472 -86.8950 311° West 268 308 8,600 -1,020 Descending Chicago Center
11:12AM 41.4231 -86.9208 346° North 283 326 7,600 -1,020 Descending Chicago Center
11:13AM 41.4961 -86.9519 342° North 289 333 6,600 -780 Descending Chicago Center
11:14AM 41.5131 -87.0378 285° West 258 297 6,100 -300 Descending Chicago Center
11:15AM 41.5289 -87.1275 283° West 252 290 6,000 -120 Descending Chicago Center
11:15AM 41.5333 -87.1833 276° West 245 282 6,000 -360 Level Chicago TRACON
11:16AM 41.5500 -87.2833 283° West 243 280 5,500 -540 Descending Chicago TRACON
11:17AM 41.5500 -87.3667 270° West 245 282 5,000 -360 Descending Chicago TRACON
11:18AM 41.5536 -87.4128 276° West 244 281 5,000 -600 Level Chicago Center
11:19AM 41.5578 -87.5022 274° West 243 280 4,100 -540 Descending Chicago Center
11:20AM 41.5622 -87.5953 274° West 247 284 4,000 -60 Descending Chicago Center
11:21AM 41.5686 -87.6853 275° West 247 284 4,000 -60 Level Chicago Center
11:22AM 41.6019 -87.7881 293° West 259 298 3,900 -420 Descending Chicago Center
11:23AM 41.6400 -87.8608 305° West 253 291 3,200 -720 Descending Chicago Center
11:24AM 41.7000 -87.8500 North 209 241 2,500 -660 Descending Chicago TRACON
11:25AM 41.7333 -87.8167 37° Northeast 156 180 1,900 -660 Descending Chicago TRACON
11:26AM 41.7667 -87.7833 37° Northeast 128 147 1,200 -720 Descending Chicago TRACON
11:29AM 41.7833 -87.7500 26° Northeast  Level FlightAware Approximate